Time;durP1;ratioP1;P1;durP2;ratioP2;P2;SDS_P1;SDS_P2;PMS_P1;PMS_P2;Temp;Humidity;BMP_temperature;BMP_pressure;BME280_temperature;BME280_humidity;BME280_pressure;Samples;Min_cycle;Max_cycle;Signal;HPM_P1;HPM_P2
2023/01/13 00:01:31;;;;;;;2.83;0.70;;;;;;;10.76;79.31;99862.03;5074906;28;20063;-82
2023/01/13 00:04:35;;;;;;;;;;;;;;;10.79;78.71;99846.16;5063057;28;20407;-83
2023/01/13 00:07:39;;;;;;;1.75;0.40;;;;;;;10.77;78.62;99842.78;5075372;28;20409;-83
2023/01/13 00:10:47;;;;;;;3.60;0.52;;;;;;;10.79;78.81;99845.31;5074831;28;20042;-83
2023/01/13 00:13:51;;;;;;;1.60;0.30;;;;;;;10.80;78.81;99829.53;5074755;28;20453;-83
2023/01/13 00:16:55;;;;;;;4.32;0.68;;;;;;;10.75;79.22;99831.59;5074724;28;20043;-83
2023/01/13 00:19:58;;;;;;;3.42;0.40;;;;;;;10.76;79.08;99825.44;5074556;28;20078;-83
2023/01/13 00:23:04;;;;;;;;;;;;;;;10.77;78.62;99827.09;5062564;28;20060;-84
2023/01/13 00:26:11;;;;;;;1.33;0.38;;;;;;;10.75;78.95;99823.75;5074696;28;19923;-83
2023/01/13 00:29:15;;;;;;;2.42;0.22;;;;;;;10.75;79.02;99810.66;5061945;28;20093;-83
2023/01/13 00:32:18;;;;;;;1.02;0.22;;;;;;;10.79;79.00;99808.72;5073758;28;20514;-83
2023/01/13 00:35:22;;;;;;;0.70;0.13;;;;;;;10.78;78.61;99823.53;5073870;28;20589;-83
2023/01/13 00:38:30;;;;;;;1.27;0.20;;;;;;;10.85;78.23;99814.38;5074233;28;20055;-82
2023/01/13 00:43:21;;;;;;;2.13;0.30;;;;;;;10.82;78.25;99804.13;5073057;28;20094;-83
2023/01/13 00:44:59;;;;;;;3.42;0.57;;;;;;;10.79;78.41;99804.31;5073338;28;20048;-82
2023/01/13 00:48:02;;;;;;;2.33;0.38;;;;;;;10.81;78.33;99801.59;5073265;28;20124;-83
2023/01/13 00:51:18;;;;;;;1.45;0.20;;;;;;;10.81;78.39;99807.66;5073249;28;20074;-83
2023/01/13 00:54:22;;;;;;;1.02;0.15;;;;;;;10.79;78.44;99803.50;5061260;28;20059;-81
2023/01/13 00:57:25;;;;;;;2.63;0.30;;;;;;;10.83;78.37;99803.19;5073448;28;20074;-81
2023/01/13 01:00:40;;;;;;;1.02;0.15;;;;;;;10.84;77.94;99790.94;5063767;28;20423;-82
2023/01/13 01:03:49;;;;;;;2.03;0.38;;;;;;;10.81;78.30;99786.72;5052662;28;20080;-81
2023/01/13 01:06:53;;;;;;;3.45;0.40;;;;;;;10.80;78.45;99785.06;5053576;28;20106;-82
2023/01/13 01:09:57;;;;;;;1.75;0.20;;;;;;;10.85;78.41;99797.88;5053458;28;20086;-81
2023/01/13 01:13:03;;;;;;;2.40;0.40;;;;;;;10.82;78.70;99798.91;5053451;28;20444;-83
2023/01/13 01:16:14;;;;;;;1.33;0.20;;;;;;;10.80;78.93;99800.75;5051144;28;20051;-82
2023/01/13 01:25:00;;;;;;;0.95;0.20;;;;;;;10.68;80.70;99797.16;5053240;28;20060;-83
2023/01/13 01:28:53;;;;;;;2.05;0.40;;;;;;;10.76;80.69;99793.22;4945879;29;20090;-82
2023/01/13 01:31:57;;;;;;;1.70;0.20;;;;;;;10.76;80.24;99798.44;5013899;28;20119;-82
2023/01/13 01:35:04;;;;;;;1.10;0.20;;;;;;;10.80;79.86;99790.28;5041498;28;20491;-82
2023/01/13 01:38:08;;;;;;;1.60;0.20;;;;;;;10.80;79.43;99795.53;5053469;28;20051;-82
2023/01/13 01:41:13;;;;;;;;;;;;;;;10.80;79.59;99792.91;5053159;28;20155;-82
2023/01/13 01:44:41;;;;;;;0.93;0.30;;;;;;;10.82;79.03;99795.44;5053554;28;19920;-82
2023/01/13 01:47:48;;;;;;;1.30;0.13;;;;;;;10.82;79.16;99780.59;5053487;28;20040;-82
2023/01/13 01:50:53;;;;;;;0.52;0.10;;;;;;;10.81;79.41;99770.22;5052961;28;20060;-82
2023/01/13 01:53:59;;;;;;;1.40;0.22;;;;;;;10.82;79.57;99783.19;5052627;28;20099;-82
2023/01/13 01:57:03;;;;;;;1.60;0.10;;;;;;;10.71;79.39;99776.03;5053246;28;20194;-82
2023/01/13 02:00:10;;;;;;;0.73;0.10;;;;;;;10.79;79.23;99775.56;5055240;28;20124;-81
2023/01/13 02:03:17;;;;;;;1.60;0.20;;;;;;;10.81;79.50;99772.81;5057205;28;20047;-82
2023/01/13 02:06:21;;;;;;;1.08;0.20;;;;;;;10.78;79.43;99771.25;5057183;28;20099;-82
2023/01/13 02:09:26;;;;;;;0.55;0.10;;;;;;;10.81;79.53;99771.03;5045005;28;20051;-81
2023/01/13 02:12:32;;;;;;;0.38;0.00;;;;;;;10.73;79.74;99756.81;5056981;28;20142;-81
2023/01/13 02:15:41;;;;;;;0.93;0.00;;;;;;;10.77;79.72;99769.56;5057132;28;20106;-81
2023/01/13 02:19:12;;;;;;;1.23;0.10;;;;;;;10.74;79.99;99754.09;5056282;28;20048;-82
2023/01/13 02:22:51;;;;;;;0.20;0.00;;;;;;;10.81;79.01;99746.69;5055917;28;20043;-82
2023/01/13 02:26:34;;;;;;;1.17;0.00;;;;;;;10.80;79.10;99743.22;5047787;28;20514;-82
2023/01/13 02:34:10;;;;;;;0.47;0.10;;;;;;;10.78;78.83;99747.72;5056622;28;20079;-83
2023/01/13 02:37:27;;;;;;;1.23;0.20;;;;;;;10.86;78.21;99753.28;4975252;28;20055;-84
2023/01/13 02:40:55;;;;;;;0.30;0.00;;;;;;;10.87;78.48;99746.28;4986880;28;20125;-83
2023/01/13 02:44:09;;;;;;;1.80;0.30;;;;;;;10.86;78.41;99750.66;5043992;28;20048;-83
2023/01/13 02:47:14;;;;;;;;;;;;;;;10.88;78.59;99735.72;5057022;28;20435;-83
2023/01/13 02:50:21;;;;;;;0.30;0.10;;;;;;;10.78;78.95;99733.81;5043517;28;20295;-83
2023/01/13 02:53:40;;;;;;;0.10;0.08;;;;;;;10.90;78.45;99730.38;5056573;28;20044;-83
2023/01/13 02:56:48;;;;;;;1.48;0.03;;;;;;;10.92;78.40;99731.13;5056009;28;20071;-83
2023/01/13 02:59:54;;;;;;;0.28;0.03;;;;;;;10.89;79.00;99726.94;5055932;28;20099;-83
2023/01/13 03:03:01;;;;;;;0.25;0.05;;;;;;;10.83;79.34;99737.78;5055943;28;20102;-83
2023/01/13 03:06:32;;;;;;;0.60;0.05;;;;;;;10.80;79.65;99727.53;5055352;28;20083;-82
2023/01/13 03:13:46;;;;;;;2.58;0.10;;;;;;;10.86;79.47;99715.84;5055689;28;20056;-82
2023/01/13 03:17:44;;;;;;;0.40;0.10;;;;;;;10.83;79.71;99710.81;5055735;28;20137;-82
2023/01/13 03:21:03;;;;;;;0.00;0.00;;;;;;;10.80;80.40;99714.47;5027029;28;20434;-84
2023/01/13 03:24:21;;;;;;;0.45;0.00;;;;;;;10.72;80.92;99724.59;5055506;28;20142;-82
2023/01/13 03:27:37;;;;;;;1.75;0.00;;;;;;;10.67;81.94;99722.28;5055183;28;20064;-82
2023/01/13 03:30:49;;;;;;;0.75;0.10;;;;;;;10.70;82.78;99721.25;5055091;28;20147;-82
2023/01/13 03:34:21;;;;;;;0.28;0.10;;;;;;;10.52;84.32;99711.97;5054906;28;20043;-82
2023/01/13 03:37:32;;;;;;;0.00;0.00;;;;;;;10.57;84.90;99717.75;5055446;28;20044;-83
2023/01/13 03:40:46;;;;;;;0.65;0.10;;;;;;;10.59;84.03;99723.69;5054874;28;20048;-83
2023/01/13 03:44:23;;;;;;;0.60;0.10;;;;;;;10.54;86.39;99758.00;5055309;28;20526;-83
2023/01/13 03:47:47;;;;;;;1.02;0.10;;;;;;;10.19;89.01;99768.03;5055824;28;20087;-83
2023/01/13 03:50:52;;;;;;;;;;;;;;;9.94;88.75;99759.13;5055711;28;20048;-84
2023/01/13 03:54:01;;;;;;;0.28;0.03;;;;;;;9.76;88.22;99760.25;5055477;28;19918;-83
2023/01/13 03:57:10;;;;;;;0.30;0.00;;;;;;;9.64;90.37;99759.22;5054989;28;20115;-83
2023/01/13 04:00:15;;;;;;;0.40;0.10;;;;;;;9.60;90.87;99754.28;5054933;28;20059;-83
2023/01/13 04:03:56;;;;;;;0.90;0.10;;;;;;;9.67;90.88;99774.72;5055062;28;20090;-83
2023/01/13 04:07:29;;;;;;;0.75;0.10;;;;;;;9.52;90.17;99763.41;5037772;28;20043;-82
2023/01/13 04:11:02;;;;;;;0.30;0.00;;;;;;;9.27;91.93;99768.41;5042101;28;20052;-82
2023/01/13 04:14:09;;;;;;;1.15;0.10;;;;;;;9.06;91.97;99794.81;5054679;28;20063;-83
2023/01/13 04:17:14;;;;;;;1.30;0.10;;;;;;;9.10;90.90;99792.03;5054668;28;20047;-83
2023/01/13 04:20:18;;;;;;;0.65;0.10;;;;;;;9.13;90.04;99812.72;5054291;28;20128;-83
2023/01/13 04:23:22;;;;;;;1.02;0.10;;;;;;;9.06;91.59;99815.69;5053173;28;20090;-83
2023/01/13 04:26:26;;;;;;;0.52;0.10;;;;;;;9.02;91.49;99832.41;5054149;28;20039;-82
2023/01/13 04:29:30;;;;;;;0.38;0.20;;;;;;;9.02;91.89;99827.19;5053693;28;20071;-82
2023/01/13 04:32:34;;;;;;;0.65;0.10;;;;;;;9.13;92.06;99823.16;5053203;28;20063;-82
2023/01/13 04:35:41;;;;;;;3.30;0.20;;;;;;;8.97;90.87;99821.44;5054444;28;20106;-82
2023/01/13 04:38:44;;;;;;;0.63;0.10;;;;;;;8.97;88.09;99813.59;5054422;28;20039;-82
2023/01/13 04:41:56;;;;;;;1.23;0.20;;;;;;;9.13;85.98;99823.16;5053350;28;20064;-83
2023/01/13 04:45:03;;;;;;;1.20;0.20;;;;;;;8.86;85.40;99826.41;5054063;28;20117;-83
2023/01/13 04:48:07;;;;;;;1.10;0.22;;;;;;;8.87;83.22;99828.09;5053617;28;20246;-81
2023/01/13 04:51:10;;;;;;;3.35;0.40;;;;;;;8.84;82.34;99829.09;5053757;28;20534;-82
2023/01/13 04:54:15;;;;;;;1.88;0.20;;;;;;;8.64;84.31;99828.50;5054027;28;20043;-82
2023/01/13 04:57:18;;;;;;;2.03;0.25;;;;;;;8.80;85.06;99829.34;5053892;28;20052;-83
2023/01/13 05:00:22;;;;;;;;;;;;;;;8.62;82.70;99828.63;5053395;28;20495;-81
2023/01/13 05:03:25;;;;;;;;;;;;;;;8.68;84.96;99811.78;5054146;28;20291;-81
2023/01/13 05:06:29;;;;;;;2.05;0.30;;;;;;;8.72;87.13;99829.78;5054768;28;19920;-81
2023/01/13 05:09:33;;;;;;;2.20;0.30;;;;;;;8.68;86.28;99848.25;5052965;28;20106;-82
2023/01/13 05:16:59;;;;;;;2.33;0.32;;;;;;;8.40;85.56;99869.78;5053404;28;20044;-81
2023/01/13 05:19:26;;;;;;;1.30;0.22;;;;;;;8.59;84.95;99850.47;5053441;28;20043;-81
2023/01/13 05:25:54;;;;;;;3.20;0.20;;;;;;;8.61;83.64;99853.84;5052863;28;20135;-82
2023/01/13 05:28:57;;;;;;;2.42;0.30;;;;;;;8.55;82.71;99853.31;5071939;22;20079;-69
2023/01/13 05:32:03;;;;;;;4.82;0.45;;;;;;;8.53;81.86;99826.50;5050532;28;20418;-71
2023/01/13 05:35:07;;;;;;;4.00;0.30;;;;;;;8.70;82.09;99846.41;5067976;28;20140;-71
2023/01/13 05:38:12;;;;;;;2.70;0.30;;;;;;;8.82;83.04;99857.00;5067646;28;20750;-70
2023/01/13 05:44:44;;;;;;;2.97;0.40;;;;;;;8.62;83.25;99826.00;5054227;28;20132;-71
2023/01/13 05:47:47;;;;;;;2.85;0.50;;;;;;;8.83;82.34;99805.72;5066202;28;20055;-69
2023/01/13 05:50:52;;;;;;;;;;;;;;;8.75;86.12;99820.97;5044669;28;20646;-70
2023/01/13 05:53:58;;;;;;;3.97;0.52;;;;;;;8.80;87.48;99831.94;5032496;28;19962;-72
2023/01/13 05:57:01;;;;;;;5.38;0.60;;;;;;;8.53;87.86;99839.53;5065002;28;20089;-71
2023/01/13 06:00:05;;;;;;;3.00;0.63;;;;;;;8.42;89.24;99837.50;5045730;28;20439;-71
2023/01/13 06:03:18;;;;;;;2.75;0.35;;;;;;;8.59;87.03;99840.03;5046264;28;20048;-70
2023/01/13 06:06:22;;;;;;;2.60;0.50;;;;;;;8.75;87.55;99840.03;5045830;28;20040;-70
2023/01/13 06:10:17;;;;;;;4.45;0.40;;;;;;;8.36;86.21;99846.47;5046209;28;20044;-71
2023/01/13 06:13:21;;;;;;;4.73;0.57;;;;;;;8.40;86.00;99855.00;5032572;28;20163;-70
2023/01/13 06:16:24;;;;;;;5.35;0.65;;;;;;;8.52;86.11;99859.56;5045356;28;20098;-70
2023/01/13 06:19:28;;;;;;;3.25;0.88;;;;;;;8.34;84.42;99855.28;5046084;28;20102;-69
2023/01/13 06:22:37;;;;;;;2.15;0.40;;;;;;;8.26;85.20;99849.63;5034143;28;20055;-70
2023/01/13 06:25:50;;;;;;;2.63;0.20;;;;;;;8.36;85.53;99837.84;5046475;28;20091;-71
2023/01/13 06:28:54;;;;;;;2.95;0.50;;;;;;;8.41;86.20;99840.19;5045393;28;20056;-70
2023/01/13 06:32:05;;;;;;;5.32;0.52;;;;;;;8.35;86.99;99846.53;5046905;28;20044;-70
2023/01/13 06:35:13;;;;;;;4.88;0.65;;;;;;;8.37;86.72;99839.50;5046309;28;20047;-73
2023/01/13 06:38:21;;;;;;;6.68;0.60;;;;;;;8.22;85.14;99842.91;5046043;28;20418;-70
2023/01/13 06:44:52;;;;;;;1.48;0.30;;;;;;;8.37;84.86;99870.75;5064182;28;20046;-70
2023/01/13 06:47:57;;;;;;;;;;;;;;;8.15;84.20;99871.91;5070459;28;20051;-71
2023/01/13 06:51:03;;;;;;;4.05;1.30;;;;;;;8.17;85.30;99869.22;5065800;28;19969;-72
2023/01/13 06:54:07;;;;;;;2.92;0.45;;;;;;;8.35;85.85;99870.81;5066258;28;20105;-71
2023/01/13 07:01:46;;;;;;;2.90;0.40;;;;;;;8.56;86.38;99881.06;5049463;28;20496;-70
2023/01/13 07:04:50;;;;;;;;;;;;;;;8.36;87.37;99879.50;5049471;28;20716;-70
2023/01/13 07:07:54;;;;;;;5.47;1.50;;;;;;;8.24;87.91;99885.38;5038013;28;20344;-71
2023/01/13 07:10:57;;;;;;;7.70;1.50;;;;;;;8.45;87.34;99886.84;5057587;28;20123;-70
2023/01/13 07:17:24;;;;;;;7.95;1.88;;;;;;;8.37;87.26;99896.81;5068641;28;19927;-70
2023/01/13 07:20:28;;;;;;;3.40;0.80;;;;;;;8.41;87.54;99898.34;5068175;28;20043;-70
2023/01/13 07:23:34;;;;;;;3.03;0.80;;;;;;;8.41;88.19;99908.78;5068149;28;20154;-71
2023/01/13 07:26:42;;;;;;;5.65;1.10;;;;;;;8.47;86.80;99911.06;5048934;28;20454;-71
2023/01/13 07:29:45;;;;;;;7.47;2.10;;;;;;;8.49;85.56;99917.03;5066712;28;20086;-71
2023/01/13 07:32:52;;;;;;;4.13;0.90;;;;;;;8.32;85.44;99914.44;5069489;28;20070;-70
2023/01/13 07:36:00;;;;;;;4.15;1.10;;;;;;;8.48;84.02;99923.16;5069930;28;20079;-71
2023/01/13 07:39:04;;;;;;;4.15;0.50;;;;;;;8.38;80.78;99929.78;5069476;28;20093;-71
2023/01/13 07:45:29;;;;;;;3.63;0.60;;;;;;;8.54;80.70;99946.28;5068306;28;20121;-71
2023/01/13 07:48:36;;;;;;;4.70;1.10;;;;;;;8.41;78.79;99942.63;5068474;28;20078;-71
2023/01/13 07:51:39;;;;;;;3.63;0.80;;;;;;;8.41;78.95;99936.59;5068811;28;20102;-71
2023/01/13 07:54:43;;;;;;;2.53;0.70;;;;;;;8.55;77.35;99944.50;5068584;28;20090;-71
2023/01/13 07:57:47;;;;;;;;;;;;;;;8.44;77.70;99954.66;5067690;28;20071;-71
2023/01/13 08:00:50;;;;;;;4.72;2.08;;;;;;;8.61;78.64;99954.59;5059775;28;19919;-71
2023/01/13 08:03:55;;;;;;;5.13;2.05;;;;;;;8.71;79.22;99963.66;5067774;28;20121;-72
2023/01/13 08:07:53;;;;;;;6.63;1.40;;;;;;;8.77;78.23;99957.25;5067759;28;20094;-71
2023/01/13 08:11:05;;;;;;;3.80;0.77;;;;;;;8.50;78.56;99952.59;5068378;28;20047;-71
2023/01/13 08:14:08;;;;;;;5.72;1.23;;;;;;;8.50;79.32;99952.59;5069056;28;20117;-71
2023/01/13 08:17:12;;;;;;;5.60;1.02;;;;;;;8.61;77.33;99950.25;5068319;28;20344;-71
2023/01/13 08:20:15;;;;;;;5.32;0.90;;;;;;;8.47;77.08;99954.50;5067257;28;20523;-71
2023/01/13 08:23:19;;;;;;;;;;;;;;;8.47;78.08;99957.13;5068745;28;20521;-71
2023/01/13 08:26:22;;;;;;;5.57;0.75;;;;;;;8.47;77.40;99963.16;5068066;28;19926;-71
2023/01/13 08:29:25;;;;;;;;;;;;;;;8.46;77.75;99960.66;5068973;28;20052;-72
2023/01/13 08:32:28;;;;;;;1.77;0.38;;;;;;;8.37;77.48;99969.75;5069605;28;19919;-70
2023/01/13 08:35:32;;;;;;;;;;;;;;;8.53;78.83;99978.47;5069621;28;20100;-72
2023/01/13 08:38:36;;;;;;;7.30;1.17;;;;;;;8.54;75.80;99987.97;5068656;28;19959;-72
2023/01/13 08:41:54;;;;;;;2.65;0.50;;;;;;;8.27;74.54;99984.19;5068154;28;20067;-73
2023/01/13 08:44:57;;;;;;;5.85;1.48;;;;;;;8.48;75.92;99992.66;5068269;28;20186;-74
2023/01/13 08:48:02;;;;;;;6.15;0.90;;;;;;;8.41;73.29;99988.69;5058988;28;20124;-72
2023/01/13 08:51:07;;;;;;;8.57;1.52;;;;;;;8.32;74.15;99993.41;5072032;28;20515;-71
2023/01/13 08:54:11;;;;;;;5.47;0.95;;;;;;;8.32;74.64;99995.19;5072248;28;20051;-71
2023/01/13 08:57:15;;;;;;;5.32;0.80;;;;;;;8.23;72.83;99990.44;5072007;28;20051;-72
2023/01/13 09:00:18;;;;;;;5.63;1.08;;;;;;;8.32;71.60;99992.56;5076609;28;20065;-70
2023/01/13 09:03:21;;;;;;;6.32;1.75;;;;;;;8.56;71.88;100004.38;5090337;28;20108;-70
2023/01/13 09:06:25;;;;;;;3.67;1.02;;;;;;;8.46;70.56;100000.56;5091480;28;20148;-71
2023/01/13 09:09:28;;;;;;;;;;;;;;;8.36;71.25;100000.19;5091971;28;20047;-72
2023/01/13 09:15:55;;;;;;;7.18;1.20;;;;;;;8.23;71.03;100013.88;5091523;28;20163;-72
2023/01/13 09:18:58;;;;;;;4.88;0.90;;;;;;;8.29;71.84;100024.81;5091513;28;20405;-72
2023/01/13 09:22:02;;;;;;;8.85;1.63;;;;;;;8.24;71.00;100011.22;5092100;28;20574;-71
2023/01/13 09:25:06;;;;;;;6.00;1.45;;;;;;;8.19;70.98;100023.63;5064607;28;20047;-71
2023/01/13 09:28:09;;;;;;;4.70;0.82;;;;;;;8.16;70.82;100003.78;5047029;28;20167;-72
2023/01/13 09:31:13;;;;;;;17.40;6.10;;;;;;;8.21;71.24;100010.53;5026193;28;20419;-72
2023/01/13 09:37:41;;;;;;;7.95;3.20;;;;;;;8.25;70.76;100012.06;5027206;28;20075;-71
2023/01/13 09:40:47;;;;;;;7.68;1.92;;;;;;;8.26;70.10;99998.94;5044258;28;20556;-71
2023/01/13 09:43:59;;;;;;;13.00;2.90;;;;;;;8.31;70.24;100002.16;5046943;28;20138;-71
2023/01/13 09:47:10;;;;;;;9.35;2.30;;;;;;;8.26;68.90;100024.16;5047404;28;20056;-71
2023/01/13 09:50:13;;;;;;;10.48;3.33;;;;;;;8.38;69.09;100008.75;5047446;28;20044;-71
2023/01/13 09:53:40;;;;;;;9.70;2.75;;;;;;;8.49;69.13;100025.63;5047355;28;20052;-71
2023/01/13 09:56:44;;;;;;;10.07;2.38;;;;;;;8.60;69.17;100018.91;5046459;28;20094;-71
2023/01/13 09:59:48;;;;;;;10.10;3.67;;;;;;;8.59;68.88;100022.47;5046528;28;20514;-71
2023/01/13 10:02:57;;;;;;;10.50;1.90;;;;;;;8.66;68.82;100028.19;5033955;28;20048;-70
2023/01/13 10:06:16;;;;;;;10.32;1.60;;;;;;;8.54;67.84;100040.09;5045166;28;20098;-70
2023/01/13 10:09:27;;;;;;;7.90;1.58;;;;;;;8.43;67.44;100052.84;5045864;28;20098;-71
2023/01/13 10:16:41;;;;;;;11.68;2.63;;;;;;;8.53;67.68;100051.44;5046884;28;20050;-71
2023/01/13 10:20:01;;;;;;;6.20;1.60;;;;;;;8.44;67.96;100043.25;5045923;28;20063;-69
2023/01/13 10:23:37;;;;;;;9.10;1.67;;;;;;;8.44;68.52;100032.84;5050185;28;20189;-72
2023/01/13 10:26:54;;;;;;;6.63;2.28;;;;;;;8.39;68.82;100043.47;5050233;28;20063;-71
2023/01/13 10:30:30;;;;;;;11.40;2.08;;;;;;;8.43;68.32;100011.16;5059336;28;20609;-71
2023/01/13 10:33:33;;;;;;;8.60;2.22;;;;;;;8.46;68.40;100016.22;5068534;28;20047;-71
2023/01/13 10:36:36;;;;;;;9.15;2.00;;;;;;;8.56;68.14;100017.41;5068434;28;20512;-70
2023/01/13 10:39:45;;;;;;;9.50;2.63;;;;;;;8.59;67.40;100000.78;5068272;28;20044;-71
2023/01/13 10:43:05;;;;;;;6.47;2.08;;;;;;;8.67;67.49;100023.81;5069477;28;20039;-71
2023/01/13 10:46:17;;;;;;;11.23;2.03;;;;;;;8.59;66.92;100021.63;5070303;28;20077;-71
2023/01/13 10:49:40;;;;;;;10.30;2.05;;;;;;;8.61;66.34;100025.84;5069828;28;20163;-71
2023/01/13 10:53:02;;;;;;;7.05;1.73;;;;;;;8.64;65.91;100018.75;5069999;28;20097;-72
2023/01/13 10:56:15;;;;;;;11.10;2.40;;;;;;;8.68;65.06;100028.97;5069877;28;20050;-70
2023/01/13 10:59:23;;;;;;;;;;;;;;;8.73;64.06;100023.50;5069393;28;20515;-72
2023/01/13 11:02:29;;;;;;;6.65;1.95;;;;;;;8.80;64.34;100010.03;5069374;28;19966;-72
2023/01/13 11:05:33;;;;;;;8.40;1.38;;;;;;;8.91;64.10;100025.13;5068814;28;20551;-72
2023/01/13 11:08:43;;;;;;;9.82;1.83;;;;;;;9.01;63.29;100030.69;5069201;28;20094;-72
2023/01/13 11:12:38;;;;;;;8.43;2.17;;;;;;;9.03;62.25;100032.31;5056762;28;20060;-72
2023/01/13 11:15:41;;;;;;;;;;;;;;;9.20;62.00;100041.00;5069763;28;20039;-72
2023/01/13 11:19:01;;;;;;;11.10;2.20;;;;;;;9.26;62.30;100028.44;5069960;28;19922;-72
2023/01/13 11:22:18;;;;;;;8.75;2.35;;;;;;;9.18;62.09;100050.66;5069734;28;20286;-72
2023/01/13 11:25:32;;;;;;;7.47;1.63;;;;;;;9.21;62.66;100060.91;5068995;28;20105;-71
2023/01/13 11:28:49;;;;;;;9.70;2.35;;;;;;;9.25;61.90;100046.78;5056770;28;20048;-71
2023/01/13 11:32:02;;;;;;;10.05;1.90;;;;;;;9.19;61.74;100052.31;5049295;28;20052;-71
2023/01/13 11:35:16;;;;;;;36.65;18.30;;;;;;;9.16;61.95;100042.09;5049491;28;20094;-71
2023/01/13 11:38:37;;;;;;;10.73;3.75;;;;;;;9.18;62.35;100041.06;5048832;28;20513;-70
2023/01/13 11:45:34;;;;;;;11.53;3.93;;;;;;;9.36;60.60;100062.69;5048555;28;20211;-72
2023/01/13 11:48:41;;;;;;;12.55;3.10;;;;;;;9.54;60.54;100038.22;5032586;28;20060;-71
2023/01/13 11:52:18;;;;;;;15.75;3.90;;;;;;;9.57;60.93;100044.16;5031947;28;20072;-70
2023/01/13 11:55:43;;;;;;;9.95;2.08;;;;;;;9.31;61.18;100046.44;5021220;28;20048;-70
2023/01/13 11:59:14;;;;;;;10.95;2.20;;;;;;;9.27;60.73;100055.38;5033390;28;20052;-71
2023/01/13 12:02:53;;;;;;;10.02;1.63;;;;;;;9.21;60.38;100053.94;5033596;28;20056;-70
2023/01/13 12:06:12;;;;;;;9.23;2.03;;;;;;;9.22;60.51;100065.19;5033398;28;20407;-71
2023/01/13 12:09:43;;;;;;;11.00;2.05;;;;;;;9.29;59.80;100054.38;5033219;28;20047;-72
2023/01/13 12:13:03;;;;;;;10.15;2.03;;;;;;;9.33;60.55;100039.38;5032544;28;20080;-72
2023/01/13 12:16:14;;;;;;;11.23;2.20;;;;;;;9.30;60.71;100050.81;5021976;28;20107;-70
2023/01/13 12:19:29;;;;;;;9.85;2.03;;;;;;;9.36;60.59;100065.31;5051133;28;20048;-70
2023/01/13 12:22:33;;;;;;;8.98;2.03;;;;;;;9.37;60.14;100069.59;5050493;28;20067;-70
2023/01/13 12:25:44;;;;;;;11.30;2.40;;;;;;;9.26;59.70;100058.91;5050911;28;20040;-70
2023/01/13 12:28:52;;;;;;;9.65;2.05;;;;;;;9.30;60.82;100040.38;5039368;28;20055;-71
2023/01/13 12:31:58;;;;;;;10.30;2.40;;;;;;;9.28;60.62;100064.88;5070096;28;20039;-70
2023/01/13 12:35:27;;;;;;;13.02;1.90;;;;;;;9.19;60.68;100057.53;5072951;28;20043;-70
2023/01/13 12:38:41;;;;;;;11.07;1.75;;;;;;;9.12;60.30;100064.03;5059813;28;20098;-70
2023/01/13 12:45:30;;;;;;;17.83;6.88;;;;;;;9.16;61.12;100083.81;5068117;28;20063;-71
2023/01/13 12:48:55;;;;;;;18.05;7.15;;;;;;;8.98;61.88;100065.59;5071730;28;20043;-71
2023/01/13 12:52:05;;;;;;;9.93;2.75;;;;;;;8.90;63.32;100072.97;5069883;28;20158;-71
2023/01/13 12:55:13;;;;;;;8.80;2.45;;;;;;;8.44;70.49;100098.81;5069750;28;20047;-71
2023/01/13 12:58:26;;;;;;;9.57;3.00;;;;;;;8.08;73.20;100120.50;5070640;28;20075;-71
2023/01/13 13:01:34;;;;;;;;;;;;;;;7.93;72.92;100168.94;5059814;28;20055;-72
2023/01/13 13:04:51;;;;;;;8.65;3.22;;;;;;;7.62;73.38;100117.47;5072971;28;19966;-72
2023/01/13 13:08:13;;;;;;;10.88;2.60;;;;;;;7.63;74.19;100105.31;5072914;28;20094;-72
2023/01/13 13:15:16;;;;;;;;;;;;;;;7.57;75.30;100118.63;5072099;28;20050;-72
2023/01/13 13:18:27;;;;;;;6.95;2.08;;;;;;;7.60;75.10;100118.47;5071420;28;20012;-72
2023/01/13 13:22:08;;;;;;;7.30;1.80;;;;;;;7.57;74.32;100132.47;5059356;28;20051;-74
2023/01/13 13:25:53;;;;;;;8.73;3.08;;;;;;;7.63;74.71;100132.19;5066211;28;20472;-72
2023/01/13 13:29:22;;;;;;;10.32;4.30;;;;;;;7.88;74.03;100131.00;5071828;28;20047;-71
2023/01/13 13:32:59;;;;;;;6.50;2.90;;;;;;;7.77;74.15;100130.69;5091334;28;20055;-72
2023/01/13 13:36:12;;;;;;;11.23;4.43;;;;;;;7.90;74.49;100137.00;5088729;28;20102;-71
2023/01/13 13:49:51;;;;;;;9.75;3.45;;;;;;;7.75;76.10;100154.19;5092406;28;20043;-71
2023/01/13 13:53:04;;;;;;;39.83;4.78;;;;;;;8.13;76.28;100152.34;5091202;28;20425;-71
2023/01/13 13:56:23;;;;;;;17.05;10.60;;;;;;;7.89;75.23;100153.56;5091918;28;20039;-72
2023/01/13 13:59:32;;;;;;;10.52;4.30;;;;;;;7.93;76.62;100155.09;5091837;28;20106;-72
2023/01/13 14:02:36;;;;;;;7.53;2.55;;;;;;;7.97;77.33;100143.59;5079346;28;20524;-73
2023/01/13 14:05:52;;;;;;;9.23;4.05;;;;;;;8.16;76.12;100139.19;5091856;28;20462;-71
2023/01/13 14:08:56;;;;;;;8.38;3.88;;;;;;;8.07;76.64;100139.66;5075211;28;20066;-73
2023/01/13 14:12:01;;;;;;;;;;;;;;;8.23;75.49;100152.78;5092590;28;20417;-73
2023/01/13 14:15:05;;;;;;;6.57;2.67;;;;;;;8.24;75.85;100145.81;5091716;28;20324;-73
2023/01/13 14:18:14;;;;;;;7.75;2.60;;;;;;;8.53;74.65;100147.84;5079210;28;20058;-71
2023/01/13 14:21:21;;;;;;;7.45;2.90;;;;;;;8.65;74.58;100153.34;5091389;28;20047;-72
2023/01/13 14:24:24;;;;;;;5.80;1.67;;;;;;;8.54;75.40;100153.91;5091701;28;20094;-71
2023/01/13 14:27:31;;;;;;;6.90;2.30;;;;;;;8.85;74.45;100153.22;5091696;28;20085;-71
2023/01/13 14:30:34;;;;;;;7.25;2.42;;;;;;;8.48;75.11;100154.22;5090887;28;20108;-71
2023/01/13 14:33:42;;;;;;;8.23;1.95;;;;;;;8.61;74.81;100150.06;5079254;28;20464;-71
2023/01/13 14:36:49;;;;;;;10.80;2.60;;;;;;;8.49;74.51;100166.34;5091597;28;20047;-72
2023/01/13 14:39:54;;;;;;;8.88;2.40;;;;;;;8.37;74.16;100159.91;5091553;28;20047;-72
2023/01/13 14:42:59;;;;;;;9.05;3.15;;;;;;;8.38;73.95;100174.66;5091988;28;20554;-72
2023/01/13 14:46:03;;;;;;;9.85;2.75;;;;;;;8.32;73.00;100182.75;5091547;28;20086;-71
2023/01/13 14:49:23;;;;;;;10.18;2.38;;;;;;;8.33;71.73;100181.84;5079208;28;20101;-71
2023/01/13 14:52:29;;;;;;;7.82;2.03;;;;;;;8.33;71.60;100181.84;5091541;28;20051;-72
2023/01/13 14:55:37;;;;;;;11.02;2.53;;;;;;;8.41;71.94;100202.34;5091592;28;20062;-72
2023/01/13 14:58:42;;;;;;;17.35;7.00;;;;;;;8.31;71.77;100204.50;5091548;28;20082;-72
2023/01/13 15:01:48;;;;;;;15.13;5.13;;;;;;;8.38;71.69;100205.91;5067783;28;20413;-72
2023/01/13 15:04:57;;;;;;;36.92;18.48;;;;;;;8.35;71.76;100209.47;5091363;28;20063;-72
2023/01/13 15:08:10;;;;;;;20.55;9.63;;;;;;;8.29;72.20;100212.38;5094585;28;20046;-71
2023/01/13 15:11:21;;;;;;;11.20;2.92;;;;;;;8.25;72.54;100215.22;5095012;28;20078;-71
2023/01/13 15:14:32;;;;;;;11.45;3.80;;;;;;;8.26;72.28;100228.16;5094917;28;20055;-71
2023/01/13 15:17:41;;;;;;;11.93;5.00;;;;;;;8.33;72.91;100260.84;5094809;28;20514;-71
2023/01/13 15:20:45;;;;;;;13.68;4.55;;;;;;;8.23;72.83;100263.91;5082531;28;20046;-72
2023/01/13 15:23:49;;;;;;;13.68;5.05;;;;;;;8.09;72.96;100248.94;5069800;28;20120;-71
2023/01/13 15:26:59;;;;;;;13.10;3.38;;;;;;;8.05;73.21;100256.06;5094985;28;20063;-72
2023/01/13 15:30:14;;;;;;;13.82;4.15;;;;;;;8.15;73.21;100266.88;5094521;28;20047;-72
2023/01/13 15:33:20;;;;;;;15.93;7.32;;;;;;;8.02;73.86;100264.00;5095038;28;20051;-72
2023/01/13 15:36:28;;;;;;;8.93;2.90;;;;;;;7.97;73.64;100278.97;5094693;28;20112;-72
2023/01/13 15:39:31;;;;;;;13.75;4.45;;;;;;;7.98;73.98;100285.91;5094459;28;20047;-72
2023/01/13 15:49:41;;;;;;;11.23;3.15;;;;;;;8.06;73.16;100272.53;5094143;28;20047;-72
2023/01/13 15:52:44;;;;;;;9.95;2.85;;;;;;;8.49;71.46;100283.59;5094262;28;20129;-78
2023/01/13 15:55:49;;;;;;;;;;;;;;;8.56;70.54;100288.44;5094723;28;20512;-77
2023/01/13 16:02:24;;;;;;;10.13;3.60;;;;;;;8.51;70.35;100293.00;5094200;28;20051;-76
2023/01/13 16:05:27;;;;;;;7.93;2.00;;;;;;;8.54;69.30;100300.69;5092124;28;20085;-83
2023/01/13 16:08:33;;;;;;;8.45;1.73;;;;;;;8.46;68.77;100308.03;5081454;28;20535;-81
2023/01/13 16:11:36;;;;;;;19.90;3.22;;;;;;;8.49;68.98;100312.25;5068698;28;20055;-84
2023/01/13 16:14:40;;;;;;;;;;;;;;;8.50;68.25;100326.97;5081060;28;20082;-79
2023/01/13 16:17:46;;;;;;;9.05;3.05;;;;;;;8.49;68.32;100333.94;5080718;28;20396;-80
2023/01/13 16:20:54;;;;;;;8.65;1.77;;;;;;;8.56;67.91;100330.13;5092142;28;20035;-78
2023/01/13 16:23:58;;;;;;;30.55;14.27;;;;;;;8.54;68.32;100331.94;5060782;28;20540;-77
2023/01/13 16:27:25;;;;;;;31.42;15.43;;;;;;;8.59;68.24;100340.41;5073313;28;20052;-77